createdAt,value
2018-06-05T00:02:04.845Z,101077.37
2018-06-05T00:04:34.294Z,101074.83
2018-06-05T00:07:03.728Z,101078.15
2018-06-05T00:09:33.215Z,101071.74
2018-06-05T00:12:02.674Z,101071.04
2018-06-05T00:14:32.106Z,101072.50
2018-06-05T00:17:01.543Z,101072.95
2018-06-05T00:19:31.016Z,101068.92
2018-06-05T00:22:00.455Z,101071.75
2018-06-05T00:24:29.900Z,101071.59
2018-06-05T00:26:59.424Z,101070.64
2018-06-05T00:29:28.839Z,101070.80
2018-06-05T00:31:58.270Z,101067.14
2018-06-05T00:34:27.747Z,101068.53
2018-06-05T00:36:57.249Z,101067.16
2018-06-05T00:39:26.693Z,101066.84
2018-06-05T00:41:56.111Z,101066.21
2018-06-05T00:44:25.569Z,101071.24
2018-06-05T00:46:55.131Z,101071.23
2018-06-05T00:49:24.563Z,101066.09
2018-06-05T00:52:07.391Z,101071.88
2018-06-05T00:54:36.880Z,101074.95
2018-06-05T00:57:06.230Z,101072.55
2018-06-05T00:59:35.664Z,101068.02
2018-06-05T01:02:05.131Z,101072.88
2018-06-05T01:04:34.573Z,101072.88
2018-06-05T01:07:04.149Z,101076.63
2018-06-05T01:09:33.606Z,101076.77
2018-06-05T01:12:03.096Z,101081.81
2018-06-05T01:14:32.549Z,101082.10
2018-06-05T01:17:05.724Z,101077.59
2018-06-05T01:19:35.159Z,101075.37
2018-06-05T01:22:04.600Z,101078.77
2018-06-05T01:24:34.044Z,101078.45
2018-06-05T01:27:17.973Z,101083.73
2018-06-05T01:29:47.397Z,101074.88
2018-06-05T01:32:16.812Z,101082.30
2018-06-05T01:34:46.295Z,101076.97
2018-06-05T01:37:15.834Z,101075.59
2018-06-05T01:39:45.248Z,101081.42
2018-06-05T01:42:14.746Z,101073.79
2018-06-05T01:44:44.286Z,101073.05
2018-06-05T01:47:13.687Z,101066.14
2018-06-05T01:49:43.108Z,101073.88
2018-06-05T01:52:12.554Z,101075.78
2018-06-05T01:54:41.974Z,101081.61
2018-06-05T01:57:11.387Z,101077.98
2018-06-05T01:59:40.848Z,101077.50
2018-06-05T02:02:10.277Z,101081.24
2018-06-05T02:04:39.691Z,101085.80
2018-06-05T02:07:09.330Z,101079.29
2018-06-05T02:09:38.793Z,101084.16
2018-06-05T02:12:08.274Z,101078.49
2018-06-05T02:14:37.706Z,101078.00
2018-06-05T02:17:07.181Z,101082.22
2018-06-05T02:19:36.633Z,101082.44
2018-06-05T02:22:06.131Z,101084.76
2018-06-05T02:24:35.555Z,101088.26
2018-06-05T02:27:05.055Z,101088.41
2018-06-05T02:29:34.547Z,101090.77
2018-06-05T02:32:04.010Z,101090.23
2018-06-05T02:34:33.471Z,101092.64
2018-06-05T02:37:02.919Z,101090.64
2018-06-05T02:39:32.336Z,101097.42
2018-06-05T02:42:01.779Z,101101.68
2018-06-05T02:44:31.203Z,101102.03
2018-06-05T02:47:00.670Z,101095.70
2018-06-05T02:49:30.110Z,101098.30
2018-06-05T02:51:59.554Z,101093.59
2018-06-05T02:54:29.007Z,101086.82
2018-06-05T02:56:58.489Z,101093.50
2018-06-05T02:59:27.894Z,101098.76
2018-06-05T03:01:57.346Z,101096.38
2018-06-05T03:04:26.838Z,101102.03
2018-06-05T03:06:57.295Z,101102.95
2018-06-05T03:09:26.709Z,101104.86
2018-06-05T03:11:56.140Z,101097.22
2018-06-05T03:14:25.587Z,101096.20
2018-06-05T03:16:55.102Z,101097.70
2018-06-05T03:19:24.619Z,101102.95
2018-06-05T03:21:54.085Z,101110.39
2018-06-05T03:24:23.655Z,101105.88
2018-06-05T03:26:53.085Z,101107.41
2018-06-05T03:29:22.507Z,101099.32
2018-06-05T03:31:51.922Z,101101.45
2018-06-05T03:34:21.337Z,101102.38
2018-06-05T03:36:50.750Z,101104.95
2018-06-05T03:39:20.220Z,101103.67
2018-06-05T03:41:49.690Z,101099.90
2018-06-05T03:44:19.148Z,101095.61
2018-06-05T03:46:48.566Z,101096.81
2018-06-05T03:49:18.014Z,101093.89
2018-06-05T03:51:47.468Z,101094.75
2018-06-05T03:54:16.895Z,101095.89
2018-06-05T03:56:46.319Z,101100.75
2018-06-05T03:59:15.751Z,101101.78
2018-06-05T04:01:45.167Z,101099.58
2018-06-05T04:04:14.592Z,101099.70
2018-06-05T04:06:44.051Z,101101.78
2018-06-05T04:09:13.478Z,101099.87
2018-06-05T04:11:42.942Z,101096.91
2018-06-05T04:14:18.547Z,101099.36
2018-06-05T04:16:50.606Z,101100.75
2018-06-05T04:19:20.151Z,101105.71
2018-06-05T04:21:49.609Z,101106.12
2018-06-05T04:24:19.050Z,101100.75
2018-06-05T04:26:48.491Z,101103.97
2018-06-05T04:29:17.986Z,101109.81
2018-06-05T04:31:47.450Z,101104.13
2018-06-05T04:34:16.881Z,101109.22
2018-06-05T04:36:46.306Z,101103.88
2018-06-05T04:39:15.741Z,101106.90
2018-06-05T04:41:45.145Z,101106.07
2018-06-05T04:44:14.603Z,101107.15
2018-06-05T04:46:44.039Z,101106.92
2018-06-05T04:49:13.491Z,101106.64
2018-06-05T04:51:43.439Z,101110.66
2018-06-05T04:54:12.909Z,101110.27
2018-06-05T04:56:42.438Z,101105.84
2018-06-05T04:59:11.883Z,101116.92
2018-06-05T05:01:41.341Z,101118.60
2018-06-05T05:04:10.857Z,101113.48
2018-06-05T05:06:40.280Z,101112.46
2018-06-05T05:09:09.757Z,101114.78
2018-06-05T05:11:39.225Z,101120.06
2018-06-05T05:14:08.626Z,101120.77
2018-06-05T05:16:38.071Z,101124.42
2018-06-05T05:19:07.515Z,101127.06
2018-06-05T05:21:37.014Z,101128.02
2018-06-05T05:24:06.528Z,101129.95
2018-06-05T05:26:35.962Z,101132.86
2018-06-05T05:29:05.387Z,101136.19
2018-06-05T05:31:34.870Z,101137.30
2018-06-05T05:34:04.327Z,101138.16
2018-06-05T05:36:33.821Z,101134.22
2018-06-05T05:39:03.588Z,101136.69
2018-06-05T05:41:33.001Z,101134.47
2018-06-05T05:44:02.416Z,101136.67
2018-06-05T05:46:31.854Z,101139.28
2018-06-05T05:49:01.280Z,101135.67
2018-06-05T05:51:30.724Z,101127.62
2018-06-05T05:54:00.202Z,101131.08
2018-06-05T05:56:29.784Z,101127.97
2018-06-05T05:58:59.545Z,101134.05
2018-06-05T06:01:28.975Z,101133.17
2018-06-05T06:04:25.018Z,101129.25
2018-06-05T06:07:15.787Z,101140.45
2018-06-05T06:09:45.374Z,101139.34
2018-06-05T06:12:14.841Z,101139.51
2018-06-05T06:14:44.287Z,101149.45
2018-06-05T06:17:13.750Z,101149.59
2018-06-05T06:19:43.172Z,101148.31
2018-06-05T06:22:12.596Z,101152.10
2018-06-05T06:24:42.049Z,101160.72
2018-06-05T06:27:11.475Z,101153.79
2018-06-05T06:29:40.872Z,101152.33
2018-06-05T06:32:10.309Z,101151.27
2018-06-05T06:34:39.754Z,101154.27
2018-06-05T06:37:09.292Z,101167.81
2018-06-05T06:39:38.727Z,101168.05
2018-06-05T06:42:08.202Z,101158.84
2018-06-05T06:44:37.596Z,101161.30
2018-06-05T06:47:07.048Z,101159.07
2018-06-05T06:49:36.473Z,101155.37
2018-06-05T06:52:05.912Z,101155.51
2018-06-05T06:54:35.360Z,101162.79
2018-06-05T06:57:04.886Z,101166.89
2018-06-05T06:59:34.318Z,101166.84
2018-06-05T07:02:03.750Z,101170.19
2018-06-05T07:04:33.184Z,101170.35
2018-06-05T07:07:02.594Z,101177.81
2018-06-05T07:09:32.026Z,101176.88
2018-06-05T07:12:01.448Z,101178.86
2018-06-05T07:14:30.888Z,101177.42
2018-06-05T07:17:00.332Z,101177.30
2018-06-05T07:19:29.740Z,101172.26
2018-06-05T07:21:59.193Z,101174.16
2018-06-05T07:24:28.610Z,101181.59
2018-06-05T07:26:58.160Z,101180.75
2018-06-05T07:29:27.649Z,101181.39
2018-06-05T07:31:57.108Z,101179.16
2018-06-05T07:34:26.547Z,101180.64
2018-06-05T07:36:56.164Z,101185.59
2018-06-05T07:39:25.581Z,101182.08
2018-06-05T07:41:55.033Z,101186.10
2018-06-05T07:44:24.460Z,101187.25
2018-06-05T07:46:53.872Z,101185.35
2018-06-05T07:49:23.314Z,101185.77
2018-06-05T07:51:52.755Z,101189.44
2018-06-05T07:54:22.189Z,101190.14
2018-06-05T07:56:51.576Z,101196.56
2018-06-05T07:59:21.008Z,101200.56
2018-06-05T08:01:50.398Z,101197.83
2018-06-05T08:04:19.855Z,101197.38
2018-06-05T08:06:49.264Z,101193.47
2018-06-05T08:09:18.715Z,101194.52
2018-06-05T08:11:48.214Z,101193.84
2018-06-05T08:14:17.593Z,101191.73
2018-06-05T08:16:47.242Z,101195.97
2018-06-05T08:19:16.678Z,101196.47
2018-06-05T08:21:46.115Z,101196.69
2018-06-05T08:24:15.619Z,101193.69
2018-06-05T08:26:53.407Z,101198.25
2018-06-05T08:29:23.262Z,101193.73
2018-06-05T08:31:52.786Z,101198.81
2018-06-05T08:34:22.238Z,101189.61
2018-06-05T08:36:51.759Z,101196.69
2018-06-05T08:39:21.205Z,101198.72
2018-06-05T08:41:50.648Z,101202.02
2018-06-05T08:44:20.103Z,101199.27
2018-06-05T08:46:49.605Z,101200.93
2018-06-05T08:49:19.017Z,101201.03
2018-06-05T08:51:48.507Z,101202.27
2018-06-05T08:54:18.077Z,101206.81
2018-06-05T08:56:47.507Z,101215.14
2018-06-05T08:59:16.936Z,101217.59
2018-06-05T09:01:46.386Z,101218.27
2018-06-05T09:04:15.889Z,101217.75
2018-06-05T09:06:45.387Z,101224.48
2018-06-05T09:09:14.838Z,101221.44
2018-06-05T09:11:44.277Z,101222.12
2018-06-05T09:14:13.780Z,101227.65
2018-06-05T09:16:43.233Z,101231.12
2018-06-05T09:19:12.725Z,101225.14
2018-06-05T09:21:42.236Z,101226.37
2018-06-05T09:24:11.689Z,101226.77
2018-06-05T09:26:41.130Z,101216.97
2018-06-05T09:29:10.596Z,101222.50
2018-06-05T09:31:40.083Z,101226.52
2018-06-05T09:34:09.614Z,101225.53
2018-06-05T09:36:39.096Z,101228.09
2018-06-05T09:39:10.053Z,101233.97
2018-06-05T09:41:39.571Z,101227.03
2018-06-05T09:44:09.052Z,101236.70
2018-06-05T09:46:38.535Z,101236.38
2018-06-05T09:49:08.012Z,101236.16
2018-06-05T09:51:37.466Z,101239.05
2018-06-05T09:54:06.914Z,101241.01
2018-06-05T09:56:36.362Z,101242.23
2018-06-05T09:59:05.854Z,101244.78
2018-06-05T10:01:35.244Z,101235.69
2018-06-05T10:04:04.675Z,101236.89
2018-06-05T10:06:34.087Z,101244.31
2018-06-05T10:09:03.991Z,101245.70
2018-06-05T10:11:33.431Z,101248.98
2018-06-05T10:14:03.116Z,101245.36
2018-06-05T10:16:32.523Z,101244.35
2018-06-05T10:19:01.986Z,101239.03
2018-06-05T10:21:31.475Z,101238.28
2018-06-05T10:24:00.904Z,101236.03
2018-06-05T10:26:30.348Z,101238.82
2018-06-05T10:28:59.814Z,101238.98
2018-06-05T10:31:29.241Z,101236.97
2018-06-05T10:33:58.664Z,101239.56
2018-06-05T10:36:28.126Z,101236.30
2018-06-05T10:38:57.597Z,101239.67
2018-06-05T10:41:27.053Z,101231.92
2018-06-05T10:43:56.523Z,101234.98
2018-06-05T10:46:26.009Z,101229.69
2018-06-05T10:48:55.504Z,101234.96
2018-06-05T10:51:24.963Z,101229.34
2018-06-05T10:53:54.455Z,101220.02
2018-06-05T10:56:23.973Z,101222.84
2018-06-05T10:58:53.436Z,101231.30
2018-06-05T11:01:22.907Z,101226.05
2018-06-05T11:03:52.376Z,101226.18
2018-06-05T11:06:21.847Z,101230.09
2018-06-05T11:08:51.294Z,101219.05
2018-06-05T11:11:20.796Z,101216.56
2018-06-05T11:13:50.288Z,101220.91
2018-06-05T11:16:19.732Z,101216.78
2018-06-05T11:18:49.171Z,101221.22
2018-06-05T11:21:18.617Z,101214.33
2018-06-05T11:23:48.223Z,101213.89
2018-06-05T11:26:17.780Z,101211.30
2018-06-05T11:28:47.247Z,101217.52
2018-06-05T11:31:16.696Z,101209.94
2018-06-05T11:33:46.164Z,101203.30
2018-06-05T11:36:15.587Z,101200.13
2018-06-05T11:38:45.031Z,101196.09
2018-06-05T11:41:14.536Z,101200.04
2018-06-05T11:43:44.026Z,101206.06
2018-06-05T11:46:13.501Z,101204.48
2018-06-05T11:48:42.931Z,101201.70
2018-06-05T11:51:12.386Z,101196.80
2018-06-05T11:53:41.847Z,101200.52
2018-06-05T11:56:11.307Z,101194.65
2018-06-05T11:58:40.765Z,101188.00
2018-06-05T12:01:10.223Z,101187.06
2018-06-05T12:03:39.745Z,101181.94
2018-06-05T12:06:09.217Z,101177.38
2018-06-05T12:08:38.696Z,101181.05
2018-06-05T12:11:08.223Z,101174.05
2018-06-05T12:13:37.685Z,101172.89
2018-06-05T12:16:07.153Z,101175.73
2018-06-05T12:18:36.657Z,101173.94
2018-06-05T12:21:06.121Z,101172.19
2018-06-05T12:23:35.592Z,101172.52
2018-06-05T12:26:05.068Z,101162.80
2018-06-05T12:28:34.502Z,101159.79
2018-06-05T12:31:04.007Z,101153.86
2018-06-05T12:33:33.436Z,101152.69
2018-06-05T12:36:02.939Z,101153.39
2018-06-05T12:38:32.387Z,101145.83
2018-06-05T12:41:01.866Z,101145.59
2018-06-05T12:43:31.321Z,101145.85
2018-06-05T12:46:00.788Z,101139.98
2018-06-05T12:48:30.267Z,101133.46
2018-06-05T12:50:59.725Z,101144.27
2018-06-05T12:53:29.210Z,101148.24
2018-06-05T12:55:58.675Z,101141.34
2018-06-05T12:58:28.144Z,101145.17
2018-06-05T13:00:57.600Z,101137.33
2018-06-05T13:03:27.112Z,101139.17
2018-06-05T13:05:56.583Z,101140.48
2018-06-05T13:08:26.025Z,101143.78
2018-06-05T13:10:55.508Z,101136.17
2018-06-05T13:13:24.956Z,101135.31
2018-06-05T13:15:54.437Z,101137.20
2018-06-05T13:18:23.933Z,101142.62
2018-06-05T13:20:53.395Z,101135.15
2018-06-05T13:23:22.904Z,101132.63
2018-06-05T13:25:52.358Z,101131.63
2018-06-05T13:28:21.914Z,101125.08
2018-06-05T13:30:51.441Z,101126.38
2018-06-05T13:33:20.958Z,101125.49
2018-06-05T13:35:50.434Z,101129.55
2018-06-05T13:38:19.955Z,101120.42
2018-06-05T13:40:49.460Z,101120.81
2018-06-05T13:43:18.904Z,101122.92
2018-06-05T13:45:48.601Z,101114.71
2018-06-05T13:48:18.079Z,101117.11
2018-06-05T13:50:47.530Z,101123.43
2018-06-05T13:53:16.969Z,101109.98
2018-06-05T13:55:46.404Z,101113.77
2018-06-05T13:58:18.935Z,101115.18
2018-06-05T14:00:48.400Z,101106.58
2018-06-05T14:03:17.836Z,101104.36
2018-06-05T14:05:47.279Z,101109.03
2018-06-05T14:08:16.789Z,101102.79
2018-06-05T14:10:46.264Z,101097.48
2018-06-05T14:13:15.763Z,101096.64
2018-06-05T14:15:45.286Z,101090.36
2018-06-05T14:18:14.783Z,101096.34
2018-06-05T14:20:44.299Z,101089.70
2018-06-05T14:23:13.759Z,101086.97
2018-06-05T14:25:43.232Z,101087.61
2018-06-05T14:28:12.693Z,101083.67
2018-06-05T14:30:42.176Z,101077.42
2018-06-05T14:33:11.619Z,101077.16
2018-06-05T14:35:41.080Z,101075.67
2018-06-05T14:38:10.654Z,101068.48
2018-06-05T14:40:40.138Z,101060.03
2018-06-05T14:43:09.303Z,101067.56
2018-06-05T14:45:38.731Z,101062.06
2018-06-05T14:48:08.195Z,101055.22
2018-06-05T14:50:37.655Z,101058.81
2018-06-05T14:53:07.040Z,101062.53
2018-06-05T14:55:36.508Z,101058.27
2018-06-05T14:58:05.931Z,101060.08
2018-06-05T15:00:35.403Z,101062.57
2018-06-05T15:03:04.869Z,101056.00
2018-06-05T15:05:34.286Z,101054.86
2018-06-05T15:08:03.760Z,101056.39
2018-06-05T15:10:33.220Z,101058.80
2018-06-05T15:13:02.713Z,101050.50
2018-06-05T15:15:32.139Z,101041.45
2018-06-05T15:18:01.570Z,101042.45
2018-06-05T15:20:31.024Z,101039.48
2018-06-05T15:23:00.457Z,101038.73
2018-06-05T15:25:29.854Z,101040.41
2018-06-05T15:27:59.320Z,101040.60
2018-06-05T15:30:28.804Z,101033.59
2018-06-05T15:32:58.258Z,101038.20
2018-06-05T15:35:27.757Z,101028.67
2018-06-05T15:37:57.193Z,101028.16
2018-06-05T15:40:26.628Z,101025.07
2018-06-05T15:42:56.098Z,101023.75
2018-06-05T15:45:25.534Z,101027.65
2018-06-05T15:47:54.931Z,101021.45
2018-06-05T15:50:24.373Z,101027.23
2018-06-05T15:52:53.866Z,101020.48
2018-06-05T15:55:23.271Z,101011.17
2018-06-05T15:57:52.798Z,101014.64
2018-06-05T16:00:22.215Z,101011.80
2018-06-05T16:02:51.634Z,101012.66
2018-06-05T16:05:21.074Z,101009.17
2018-06-05T16:07:50.501Z,101006.16
2018-06-05T16:10:19.993Z,101008.08
2018-06-05T16:12:49.490Z,101010.94
2018-06-05T16:15:18.984Z,101002.66
2018-06-05T16:17:48.406Z,101001.85
2018-06-05T16:20:17.887Z,101001.59
2018-06-05T16:22:47.308Z,100997.39
2018-06-05T16:25:16.755Z,100999.11
2018-06-05T16:27:46.205Z,100999.13
2018-06-05T16:30:15.610Z,100993.58
2018-06-05T16:32:45.037Z,100987.30
2018-06-05T16:35:14.437Z,100984.34
2018-06-05T16:37:43.894Z,100985.61
2018-06-05T16:40:13.304Z,100986.78
2018-06-05T16:42:42.761Z,100981.98
2018-06-05T16:45:12.521Z,100978.58
2018-06-05T16:47:41.948Z,100980.95
2018-06-05T16:50:11.384Z,100967.09
2018-06-05T16:52:40.842Z,100972.06
2018-06-05T16:55:10.332Z,100969.52
2018-06-05T16:57:39.747Z,100967.18
2018-06-05T17:00:09.158Z,100972.14
2018-06-05T17:02:38.639Z,100972.37
2018-06-05T17:05:08.076Z,100967.62
2018-06-05T17:07:37.601Z,100965.13
2018-06-05T17:10:07.071Z,100970.63
2018-06-05T17:12:36.527Z,100963.85
2018-06-05T17:15:06.098Z,100966.06
2018-06-05T17:17:35.478Z,100964.90
2018-06-05T17:20:05.029Z,100966.93
2018-06-05T17:22:34.477Z,100971.78
2018-06-05T17:25:03.918Z,100968.70
2018-06-05T17:27:33.355Z,100964.96
2018-06-05T17:30:02.521Z,100959.36
2018-06-05T17:32:32.013Z,100964.66
2018-06-05T17:35:01.565Z,100971.09
2018-06-05T17:37:31.053Z,100968.56
2018-06-05T17:40:00.554Z,100964.62
2018-06-05T17:42:29.968Z,100958.09
2018-06-05T17:44:59.402Z,100966.30
2018-06-05T17:47:28.847Z,100971.84
2018-06-05T17:49:58.284Z,100967.83
2018-06-05T17:52:27.706Z,100968.80
2018-06-05T17:54:57.193Z,100969.59
2018-06-05T17:57:26.688Z,100978.26
2018-06-05T17:59:56.148Z,100978.86
2018-06-05T18:02:25.609Z,100978.45
2018-06-05T18:04:55.058Z,100982.59
2018-06-05T18:07:24.559Z,100985.16
2018-06-05T18:10:00.635Z,100980.70
2018-06-05T18:12:30.105Z,100984.12
2018-06-05T18:14:59.504Z,100980.83
2018-06-05T18:17:28.910Z,100986.94
2018-06-05T18:19:59.012Z,100988.81
2018-06-05T18:22:28.459Z,100998.62
2018-06-05T18:24:57.915Z,100998.53
2018-06-05T18:27:27.422Z,100999.84
2018-06-05T18:29:57.076Z,101000.27
2018-06-05T18:32:26.924Z,101002.08
2018-06-05T18:34:56.503Z,101004.66
2018-06-05T18:37:26.066Z,101007.72
2018-06-05T18:39:55.448Z,101003.09
2018-06-05T18:42:24.896Z,101009.91
2018-06-05T18:44:54.712Z,101014.94
2018-06-05T18:47:25.178Z,101013.54
2018-06-05T18:49:55.499Z,101012.44
2018-06-05T18:52:25.974Z,101013.37
2018-06-05T18:54:56.923Z,101013.45
2018-06-05T18:57:26.975Z,101016.74
2018-06-05T18:59:56.918Z,101020.20
2018-06-05T19:02:27.247Z,101018.64
2018-06-05T19:04:58.033Z,101021.54
2018-06-05T19:07:28.650Z,101019.36
2018-06-05T19:10:00.098Z,101023.78
2018-06-05T19:12:31.015Z,101024.53
2018-06-05T19:15:01.161Z,101019.88
2018-06-05T19:17:31.356Z,101019.40
2018-06-05T19:20:01.683Z,101026.80
2018-06-05T19:22:32.160Z,101025.83
2018-06-05T19:25:03.237Z,101030.14
2018-06-05T19:27:33.447Z,101038.97
2018-06-05T19:30:03.553Z,101039.02
2018-06-05T19:32:34.516Z,101045.02
2018-06-05T19:35:04.062Z,101045.89
2018-06-05T19:37:33.670Z,101047.78
2018-06-05T19:40:09.332Z,101052.32
2018-06-05T19:42:39.263Z,101055.41
2018-06-05T19:45:09.873Z,101059.85
2018-06-05T19:47:39.824Z,101057.46
2018-06-05T19:50:10.449Z,101065.02
2018-06-05T19:52:40.571Z,101063.98
2018-06-05T19:55:11.147Z,101070.70
2018-06-05T19:57:41.983Z,101067.41
2018-06-05T20:00:13.687Z,101067.95
2018-06-05T20:02:44.187Z,101068.11
2018-06-05T20:05:14.214Z,101076.34
2018-06-05T20:07:44.631Z,101076.63
2018-06-05T20:10:14.840Z,101074.58
2018-06-05T20:12:44.289Z,101075.26
2018-06-05T20:15:15.374Z,101077.53
2018-06-05T20:17:45.614Z,101073.20
2018-06-05T20:20:16.029Z,101077.45
2018-06-05T20:22:46.955Z,101082.59
2018-06-05T20:25:17.280Z,101085.26
2018-06-05T20:27:46.656Z,101088.17
2018-06-05T20:30:16.141Z,101089.20
2018-06-05T20:32:45.538Z,101089.56
2018-06-05T20:35:15.048Z,101092.42
2018-06-05T20:37:44.485Z,101085.63
2018-06-05T20:40:13.974Z,101082.59
2018-06-05T20:42:43.406Z,101083.63
2018-06-05T20:45:12.836Z,101086.84
2018-06-05T20:47:42.363Z,101086.36
2018-06-05T20:50:11.863Z,101088.30
2018-06-05T20:52:41.285Z,101091.64
2018-06-05T20:55:10.755Z,101089.42
2018-06-05T20:57:40.224Z,101096.83
2018-06-05T21:00:09.680Z,101096.25
2018-06-05T21:02:39.098Z,101089.83
2018-06-05T21:05:08.589Z,101090.93
2018-06-05T21:07:38.012Z,101091.97
2018-06-05T21:10:07.463Z,101097.77
2018-06-05T21:12:36.943Z,101096.38
2018-06-05T21:15:06.452Z,101101.17
2018-06-05T21:17:35.940Z,101094.75
2018-06-05T21:20:05.475Z,101094.75
2018-06-05T21:22:34.869Z,101104.05
2018-06-05T21:25:04.358Z,101099.51
2018-06-05T21:27:33.928Z,101100.41
2018-06-05T21:30:03.412Z,101102.75
2018-06-05T21:32:32.868Z,101099.14
2018-06-05T21:35:02.288Z,101099.17
2018-06-05T21:37:31.715Z,101107.45
2018-06-05T21:40:01.172Z,101101.72
2018-06-05T21:42:30.650Z,101098.98
2018-06-05T21:45:00.122Z,101104.70
2018-06-05T21:47:29.569Z,101104.37
2018-06-05T21:49:59.043Z,101102.11
2018-06-05T21:52:28.485Z,101104.30
2018-06-05T21:54:58.035Z,101103.84
2018-06-05T21:57:27.508Z,101106.03
2018-06-05T21:59:57.003Z,101103.12
2018-06-05T22:02:26.428Z,101105.07
2018-06-05T22:04:55.902Z,101105.20
2018-06-05T22:07:25.346Z,101105.02
2018-06-05T22:09:54.636Z,101106.59
2018-06-05T22:12:24.071Z,101102.84
2018-06-05T22:14:53.594Z,101099.42
2018-06-05T22:17:23.031Z,101101.44
2018-06-05T22:19:52.465Z,101100.43
2018-06-05T22:22:21.879Z,101099.27
2018-06-05T22:24:51.346Z,101098.02
2018-06-05T22:27:20.859Z,101105.05
2018-06-05T22:29:50.301Z,101099.52
2018-06-05T22:32:19.770Z,101102.83
2018-06-05T22:34:49.202Z,101109.51
2018-06-05T22:37:18.703Z,101106.62
2018-06-05T22:39:48.171Z,101099.15
2018-06-05T22:42:17.676Z,101102.48
2018-06-05T22:44:47.214Z,101091.63
2018-06-05T22:47:16.686Z,101096.58
2018-06-05T22:49:46.161Z,101096.44
2018-06-05T22:52:15.599Z,101092.70
2018-06-05T22:54:45.056Z,101091.42
2018-06-05T22:57:14.534Z,101091.72
2018-06-05T22:59:43.941Z,101085.52
2018-06-05T23:02:13.373Z,101097.17
2018-06-05T23:04:42.849Z,101094.70
2018-06-05T23:07:12.345Z,101098.90
2018-06-05T23:09:41.836Z,101096.02
2018-06-05T23:12:11.272Z,101095.94
2018-06-05T23:14:40.684Z,101104.36
2018-06-05T23:17:10.159Z,101097.80
2018-06-05T23:19:39.595Z,101098.30
2018-06-05T23:22:09.034Z,101098.05
2018-06-05T23:24:38.517Z,101095.77
2018-06-05T23:27:07.975Z,101099.66
2018-06-05T23:29:37.413Z,101104.77
2018-06-05T23:32:07.257Z,101104.11
2018-06-05T23:34:36.701Z,101101.41
2018-06-05T23:37:06.143Z,101099.55
2018-06-05T23:39:35.670Z,101101.61
2018-06-05T23:42:05.147Z,101096.91
2018-06-05T23:44:34.591Z,101098.06
2018-06-05T23:47:04.017Z,101098.21
2018-06-05T23:49:33.451Z,101088.36
2018-06-05T23:52:02.921Z,101097.02
2018-06-05T23:54:32.336Z,101098.16
2018-06-05T23:57:01.795Z,101099.45
2018-06-05T23:59:31.292Z,101101.61
